• Join FlightAware (Why Join?)
  • Login
  • US Flag 
02:40AM EDT


 

Airport Tracker/Info


-or-


 

Live Flight TrackerFlight Track Log ✈ AAY890 ✈ 02-Jul-2014 ✈ KPIE - KFWA

Flight Track Log - Related Links

Times and Time Zones

All times are in EDT time to prevent confusion due to time zone crossing. See the AAY890 flight status page for this flight to view local times or setup timezone preferences in your user account.

Time Position Orientation Groundspeed Altitude Reporting Facility
EDT Latitude Longitude Course Direction KTS MPH feet Rate Location/Type
03:58PM 27.9333 -82.6833 12° North 151 174 1,000  Level Tampa TRACON
03:59PM 28.0000 -82.6667 12° North 232 267 3,100 1,260 Climbing Tampa TRACON
04:00PM 28.0667 -82.6500 12° North 280 322 4,000 1,800 Climbing Tampa TRACON
04:02PM 28.1647 -82.6578 356° North 284 327 7,700 2,580 Climbing Miami Center
04:03PM 28.2419 -82.7206 324° Northwest 286 329 10,800 2,220 Climbing Miami Center
04:04PM 28.3125 -82.7814 323° Northwest 324 373 12,300 1,440 Climbing Miami Center
04:05PM 28.3933 -82.8517 323° Northwest 369 425 13,800 1,800 Climbing Miami Center
04:06PM 28.4922 -82.9072 334° Northwest 406 467 16,000 1,980 Climbing Miami Center
04:07PM 28.6039 -82.9192 355° North 409 471 17,900 2,040 Climbing Miami Center
04:08PM 28.7197 -82.9353 353° North 408 470 19,900 1,860 Climbing Jacksonville Center
04:09PM 28.8428 -82.9519 353° North 429 494 21,400 1,440 Climbing Jacksonville Center
04:10PM 28.9681 -82.9661 354° North 447 514 22,900 1,500 Climbing Jacksonville Center
04:11PM 29.0975 -82.9828 354° North 453 521 24,400 1,380 Climbing Jacksonville Center
04:12PM 29.2269 -82.9997 353° North 463 533 25,700 1,440 Climbing Jacksonville Center
04:13PM 29.3583 -83.0164 354° North 463 533 27,400 1,560 Climbing Jacksonville Center
04:14PM 29.4897 -83.0406 351° North 471 542 28,800 1,320 Climbing Jacksonville Center
04:15PM 29.6150 -83.0597 352° North 460 529 30,100 1,200 Climbing Jacksonville Center
04:16PM 29.7361 -83.1128 339° North 467 537 31,300 900 Climbing Jacksonville Center
04:17PM 29.8569 -83.1703 338° Northwest 470 541 31,900 180 Climbing Jacksonville Center
04:19PM 30.0864 -83.2742 339° North 457 526 32,000  Climbing Jacksonville Center
04:20PM 30.2072 -83.3300 338° Northwest 457 526 31,900 -60 Descending Jacksonville Center
04:21PM 30.3281 -83.3883 337° Northwest 462 532 31,900  Level Jacksonville Center
04:22PM 30.4469 -83.4444 338° Northwest 462 532 32,000  Climbing Jacksonville Center
04:23PM 30.5700 -83.5031 338° Northwest 462 532 32,000  Level Jacksonville Center
04:24PM 30.6908 -83.5569 339° North 462 532 32,000  Level Jacksonville Center
04:25PM 30.8239 -83.6231 337° Northwest 462 532 32,000  Level Jacksonville Center
04:26PM 30.9447 -83.6797 338° Northwest 462 532 32,000  Level Jacksonville Center
04:27PM 31.0656 -83.7389 337° Northwest 462 532 32,000  Level Jacksonville Center
04:28PM 31.1883 -83.7983 338° Northwest 467 537 32,000  Level Jacksonville Center
04:30PM 31.4586 -83.9294 338° Northwest 470 541 32,000  Level Atlanta Center
04:31PM 31.5714 -83.9756 341° North 470 541 32,000  Level Atlanta Center
04:32PM 31.7028 -84.0047 349° North 470 541 32,000  Level Atlanta Center
04:33PM 31.8342 -84.0317 350° North 475 547 32,000  Level Atlanta Center
04:34PM 31.9636 -84.0583 350° North 475 547 32,000  Level Atlanta Center
04:35PM 32.0931 -84.0856 350° North 475 547 32,000  Level Atlanta Center
04:36PM 32.2225 -84.1175 348° North 470 541 32,000  Level Atlanta Center
04:37PM 32.3497 -84.1444 350° North 470 541 32,000  Level Atlanta Center
04:38PM 32.4792 -84.1742 349° North 470 541 32,000  Level Atlanta Center
04:39PM 32.6086 -84.2042 349° North 465 535 32,000  Level Atlanta Center
04:40PM 32.7358 -84.2314 350° North 465 535 32,000  Level Atlanta Center
04:41PM 32.8611 -84.2564 350° North 465 535 32,000  Level Atlanta Center
04:42PM 32.9925 -84.2592 359° North 465 535 32,000  Level Atlanta Center
04:43PM 33.1219 -84.2594 360° North 465 535 32,000  Level Atlanta Center
04:44PM 33.2492 -84.2600 360° North 458 527 32,000  Level Atlanta Center
04:45PM 33.3786 -84.2603 360° North 458 527 32,000  Level Atlanta Center
04:46PM 33.5081 -84.2606 360° North 458 527 32,000  Level Atlanta Center
04:47PM 33.6500 -84.2658 358° North 463 533 32,000  Level Atlanta Center
04:48PM 33.7814 -84.2661 360° North 463 533 32,000  Level Atlanta Center
04:49PM 33.9131 -84.2667 360° North 458 527 32,000  Level Atlanta Center
04:50PM 34.0403 -84.2694 359° North 458 527 32,000  Level Atlanta Center
04:51PM 34.1636 -84.2647 North 469 540 32,000  Level Atlanta Center
04:52PM 34.2908 -84.2650 360° North 474 545 32,000  Level Atlanta Center
04:53PM 34.4347 -84.2681 359° North 469 540 32,000  Level Atlanta Center
04:54PM 34.5642 -84.2683 360° North 464 534 32,000  Level Atlanta Center
04:55PM 34.6914 -84.2711 359° North 459 528 32,000  Level Atlanta Center
04:56PM 34.8208 -84.2717 360° North 459 528 32,000  Level Atlanta Center
04:57PM 34.9481 -84.2769 358° North 459 528 32,000  Level Atlanta Center
04:58PM 35.0756 -84.2772 360° North 459 528 32,000  Level Atlanta Center
04:59PM 35.2069 -84.2778 360° North 459 528 32,000  Level Atlanta Center
05:00PM 35.3342 -84.2781 360° North 459 528 32,000  Level Atlanta Center
05:01PM 35.4656 -84.2811 359° North 459 528 32,000  Level Atlanta Center
05:02PM 35.5950 -84.2814 360° North 459 528 32,000  Level Atlanta Center
05:03PM 35.7283 -84.2817 360° North 459 528 32,000  Level Atlanta Center
05:04PM 35.8578 -84.2847 359° North 459 528 32,000  Level Atlanta Center
05:05PM 35.9892 -84.2825 North 459 528 32,000  Level Atlanta Center
05:06PM 36.1386 -84.2842 359° North 469 540 32,000  Level Indianapolis Center
05:07PM 36.2706 -84.2858 359° North 472 543 32,000  Level Indianapolis Center
05:08PM 36.4031 -84.2867 360° North 474 545 32,000  Level Indianapolis Center
05:09PM 36.5447 -84.2886 359° North 474 545 32,000  Level Indianapolis Center
05:10PM 36.6800 -84.2900 360° North 476 548 32,000  Level Indianapolis Center
05:11PM 36.8150 -84.2917 359° North 479 551 32,000  Level Indianapolis Center
05:12PM 36.9700 -84.2931 360° North 478 550 32,000  Level Indianapolis Center
05:13PM 37.1031 -84.2942 360° North 478 550 32,000  Level Indianapolis Center
05:14PM 37.2361 -84.2956 360° North 478 550 32,000  Level Indianapolis Center
05:15PM 37.3686 -84.2975 359° North 476 548 32,000  Level Indianapolis Center
05:16PM 37.5033 -84.2989 360° North 477 549 32,000  Level Indianapolis Center
05:18PM 37.6367 -84.3000 360° North 477 549 32,000  Level Indianapolis Center
05:19PM 37.7711 -84.3011 360° North 477 549 32,000  Level Indianapolis Center
05:20PM 37.9275 -84.3044 359° North 478 550 32,000  Level Indianapolis Center
05:21PM 38.0625 -84.3036 360° North 480 552 32,000  Level Indianapolis Center
05:22PM 38.1983 -84.3053 359° North 483 556 32,000  Level Indianapolis Center
05:23PM 38.3322 -84.3083 359° North 483 556 32,000  Level Indianapolis Center
05:24PM 38.4683 -84.3078 360° North 484 557 32,000  Level Indianapolis Center
05:25PM 38.6039 -84.3108 359° North 484 557 32,000  Level Indianapolis Center
05:26PM 38.7433 -84.3450 349° North 474 545 32,000  Level Indianapolis Center
05:27PM 38.8689 -84.3903 344° North 471 542 32,000  Level Indianapolis Center
05:28PM 38.9931 -84.4369 344° North 469 540 32,000 -720 Level Indianapolis Center
05:29PM 39.1294 -84.4892 343° North 469 540 30,600 -1,680 Descending Indianapolis Center
05:30PM 39.2472 -84.5319 344° North 473 544 28,600 -2,100 Descending Indianapolis Center
05:31PM 39.3747 -84.5789 344° North 474 545 26,400 -1,680 Descending Indianapolis Center
05:32PM 39.4978 -84.6247 344° North 468 539 25,200 -1,200 Descending Indianapolis Center
05:33PM 39.6322 -84.6764 344° North 433 498 24,000 -1,320 Descending Indianapolis Center
05:34PM 39.7436 -84.7178 344° North 422 486 22,500 -1,380 Descending Indianapolis Center
05:35PM 39.8531 -84.7603 343° North 416 479 21,200 -1,260 Descending Indianapolis Center
05:36PM 39.9592 -84.8003 344° North 406 467 20,000 -660 Descending Indianapolis Center
05:37PM 40.0664 -84.8411 344° North 403 464 19,900 -1,260 Descending Indianapolis Center
05:38PM 40.1744 -84.8817 344° North 403 464 17,500 -3,180 Descending Indianapolis Center
05:39PM 40.2864 -84.9250 344° North 399 459 13,400 -3,180 Descending Indianapolis Center
05:40PM 40.3878 -84.9647 343° North 389 448 11,000 -1,200 Descending Indianapolis Center
05:41PM 40.4767 -84.9981 344° North 346 398 11,000 -120 Level Indianapolis Center
05:42PM 40.5553 -85.0297 343° North 306 352 10,800 -840 Descending Indianapolis Center
05:43PM 40.6361 -85.0606 344° North 303 349 9,300 -1,620 Descending Indianapolis Center
05:44PM 40.7314 -85.0911 346° North 300 345 7,500 -1,620 Descending Indianapolis Center
05:45PM 40.8000 -85.0294 34° Northeast 295 339 6,100 -1,260 Descending Indianapolis Center
05:46PM 40.8717 -84.9739 30° Northeast 289 333 5,000 -1,380 Descending Indianapolis Center
05:48PM 40.9161 -85.0789 299° West 222 255 2,800 -1,320 Descending Chicago Center
05:49PM 40.9361 -85.1289 298° West 184 212 1,800 -540 Descending Chicago Center
05:50PM 40.9581 -85.1672 307° West 170 196 1,700 -120 Descending Chicago Center
05:52PM 40.9667 -85.1833 339° North  Level FlightAware Approximate